createdAt,value
2022-09-12T00:00:29.293Z,5.50
2022-09-12T00:01:29.358Z,6.10
2022-09-12T00:02:29.293Z,5.90
2022-09-12T00:03:29.252Z,6.00
2022-09-12T00:04:29.225Z,5.40
2022-09-12T00:05:29.234Z,5.50
2022-09-12T00:06:29.248Z,5.90
2022-09-12T00:07:29.186Z,6.60
2022-09-12T00:08:29.191Z,6.20
2022-09-12T00:09:29.183Z,6.20
2022-09-12T00:10:29.182Z,5.90
2022-09-12T00:11:29.189Z,6.40
2022-09-12T00:12:29.142Z,5.40
2022-09-12T00:13:29.114Z,6.30
2022-09-12T00:14:29.126Z,5.50
2022-09-12T00:15:29.103Z,5.80
2022-09-12T00:16:29.188Z,5.90
2022-09-12T00:17:29.093Z,5.50
2022-09-12T00:18:29.071Z,5.80
2022-09-12T00:19:29.054Z,5.70
2022-09-12T00:20:29.051Z,5.80
2022-09-12T00:21:29.035Z,6.00
2022-09-12T00:22:29.037Z,6.10
2022-09-12T00:23:29.013Z,6.50
2022-09-12T00:24:29.023Z,6.70
2022-09-12T00:25:28.978Z,6.00
2022-09-12T00:26:28.981Z,5.90
2022-09-12T00:27:28.977Z,5.50
2022-09-12T00:28:28.949Z,6.50
2022-09-12T00:29:28.937Z,6.00
2022-09-12T00:30:28.929Z,6.10
2022-09-12T00:31:28.940Z,6.20
2022-09-12T00:32:28.919Z,5.60
2022-09-12T00:33:28.896Z,5.90
2022-09-12T00:34:28.889Z,5.90
2022-09-12T00:35:28.886Z,5.90
2022-09-12T00:36:28.871Z,6.10
2022-09-12T00:37:28.844Z,5.90
2022-09-12T00:38:28.855Z,5.80
2022-09-12T00:39:28.819Z,5.80
2022-09-12T00:40:28.810Z,6.60
2022-09-12T00:41:28.806Z,6.00
2022-09-12T00:42:28.780Z,5.90
2022-09-12T00:43:28.802Z,6.10
2022-09-12T00:44:28.772Z,5.40
2022-09-12T00:45:28.824Z,5.80
2022-09-12T00:46:28.752Z,6.30
2022-09-12T00:47:28.730Z,5.50
2022-09-12T00:48:28.723Z,5.50
2022-09-12T00:49:28.720Z,6.20
2022-09-12T00:50:28.713Z,6.70
2022-09-12T00:51:28.689Z,6.20
2022-09-12T00:52:28.677Z,5.70
2022-09-12T00:53:28.669Z,6.00
2022-09-12T00:54:28.680Z,5.70
2022-09-12T00:55:28.644Z,6.30
2022-09-12T00:56:28.639Z,5.80
2022-09-12T00:57:28.624Z,6.10
2022-09-12T00:58:28.620Z,6.60
2022-09-12T00:59:28.600Z,6.50
2022-09-12T01:00:28.609Z,6.20
2022-09-12T01:01:32.408Z,6.10
2022-09-12T01:02:28.567Z,6.70
2022-09-12T01:03:28.552Z,6.40
2022-09-12T01:04:28.536Z,6.90
2022-09-12T01:05:28.549Z,5.90
2022-09-12T01:06:28.513Z,6.40
2022-09-12T01:07:28.501Z,6.90
2022-09-12T01:08:28.502Z,6.10
2022-09-12T01:09:28.491Z,5.80
2022-09-12T01:10:28.493Z,6.30
2022-09-12T01:11:28.465Z,6.10
2022-09-12T01:12:28.452Z,5.80
2022-09-12T01:13:28.443Z,7.20
2022-09-12T01:14:28.434Z,5.90
2022-09-12T01:15:28.432Z,6.10
2022-09-12T01:16:28.422Z,6.20
2022-09-12T01:17:28.395Z,6.30
2022-09-12T01:18:28.383Z,6.20
2022-09-12T01:19:28.363Z,7.00
2022-09-12T01:20:28.369Z,6.50
2022-09-12T01:21:28.356Z,5.70
2022-09-12T01:22:28.343Z,6.70
2022-09-12T01:23:28.331Z,6.30
2022-09-12T01:24:28.322Z,6.50
2022-09-12T01:25:28.299Z,6.10
2022-09-12T01:26:28.306Z,5.90
2022-09-12T01:27:28.276Z,6.10
2022-09-12T01:28:28.270Z,6.20
2022-09-12T01:29:28.253Z,5.70
2022-09-12T01:30:28.240Z,6.00
2022-09-12T01:31:28.233Z,6.90
2022-09-12T01:32:28.260Z,6.00
2022-09-12T01:33:28.216Z,7.10
2022-09-12T01:34:28.213Z,6.10
2022-09-12T01:35:28.186Z,5.50
2022-09-12T01:36:28.166Z,6.40
2022-09-12T01:37:28.175Z,5.80
2022-09-12T01:38:28.157Z,6.70
2022-09-12T01:39:28.149Z,6.50
2022-09-12T01:40:28.140Z,5.70
2022-09-12T01:41:28.121Z,6.20
2022-09-12T01:42:28.127Z,6.00
2022-09-12T01:43:28.099Z,6.20
2022-09-12T01:44:28.088Z,5.40
2022-09-12T01:45:28.113Z,5.90
2022-09-12T01:46:28.065Z,5.40
2022-09-12T01:47:28.069Z,6.50
2022-09-12T01:48:28.035Z,6.50
2022-09-12T01:49:28.032Z,6.60
2022-09-12T01:50:28.015Z,6.70
2022-09-12T01:51:28.007Z,6.50
2022-09-12T01:52:27.991Z,6.40
2022-09-12T01:53:27.988Z,6.00
2022-09-12T01:54:27.969Z,5.90
2022-09-12T01:55:27.960Z,5.70
2022-09-12T01:56:27.951Z,5.40
2022-09-12T01:57:27.939Z,6.00
2022-09-12T01:58:27.947Z,6.40
2022-09-12T01:59:27.910Z,6.20
2022-09-12T02:00:27.907Z,5.10
2022-09-12T02:01:27.921Z,6.30
2022-09-12T02:02:27.919Z,6.00
2022-09-12T02:03:27.896Z,6.00
2022-09-12T02:04:31.139Z,5.60
2022-09-12T02:05:28.840Z,6.30
2022-09-12T02:06:27.843Z,6.40
2022-09-12T02:07:27.832Z,7.80
2022-09-12T02:08:27.828Z,6.30
2022-09-12T02:09:27.802Z,7.10
2022-09-12T02:10:32.259Z,7.10
2022-09-12T02:11:27.778Z,6.40
2022-09-12T02:12:27.769Z,6.20
2022-09-12T02:13:27.751Z,5.50
2022-09-12T02:14:27.767Z,5.70
2022-09-12T02:15:27.732Z,5.90
2022-09-12T02:16:27.757Z,6.00
2022-09-12T02:17:27.710Z,6.20
2022-09-12T02:18:27.700Z,6.20
2022-09-12T02:19:27.700Z,6.20
2022-09-12T02:20:47.029Z,5.80
2022-09-12T02:21:28.669Z,6.00
2022-09-12T02:22:27.662Z,5.90
2022-09-12T02:23:27.651Z,6.00
2022-09-12T02:24:27.648Z,6.30
2022-09-12T02:25:27.623Z,6.20
2022-09-12T02:26:27.603Z,6.10
2022-09-12T02:27:27.591Z,5.90
2022-09-12T02:28:27.589Z,6.20
2022-09-12T02:29:27.590Z,6.30
2022-09-12T02:30:27.641Z,6.50
2022-09-12T02:31:27.564Z,6.40
2022-09-12T02:32:27.544Z,6.10
2022-09-12T02:33:27.533Z,6.70
2022-09-12T02:34:27.564Z,7.00
2022-09-12T02:35:27.511Z,6.80
2022-09-12T02:36:27.495Z,6.40
2022-09-12T02:37:27.478Z,6.30
2022-09-12T02:38:27.473Z,6.60
2022-09-12T02:39:27.462Z,6.50
2022-09-12T02:40:27.464Z,7.50
2022-09-12T02:41:27.439Z,7.50
2022-09-12T02:42:27.423Z,7.00
2022-09-12T02:43:27.412Z,6.50
2022-09-12T02:44:27.406Z,6.40
2022-09-12T02:45:27.465Z,7.00
2022-09-12T02:46:27.374Z,7.70
2022-09-12T02:47:27.374Z,5.60
2022-09-12T02:48:27.354Z,6.40
2022-09-12T02:49:27.355Z,6.70
2022-09-12T02:50:27.347Z,6.80
2022-09-12T02:51:27.324Z,6.50
2022-09-12T02:52:27.316Z,6.30
2022-09-12T02:53:27.302Z,6.30
2022-09-12T02:54:27.292Z,6.40
2022-09-12T02:55:27.292Z,6.10
2022-09-12T02:56:27.268Z,6.00
2022-09-12T02:57:27.255Z,6.70
2022-09-12T02:58:27.247Z,5.80
2022-09-12T02:59:27.237Z,6.20
2022-09-12T03:00:27.247Z,6.90
2022-09-12T03:01:27.264Z,6.50
2022-09-12T03:02:27.234Z,7.00
2022-09-12T03:03:27.186Z,6.30
2022-09-12T03:04:27.183Z,6.30
2022-09-12T03:05:27.190Z,6.00
2022-09-12T03:06:27.158Z,7.00
2022-09-12T03:07:27.135Z,6.10
2022-09-12T03:08:27.136Z,6.70
2022-09-12T03:09:27.117Z,6.40
2022-09-12T03:10:27.109Z,6.00
2022-09-12T03:11:27.117Z,6.30
2022-09-12T03:12:27.083Z,5.60
2022-09-12T03:13:27.069Z,6.30
2022-09-12T03:14:27.063Z,5.90
2022-09-12T03:15:27.054Z,6.50
2022-09-12T03:16:27.117Z,6.10
2022-09-12T03:17:27.030Z,6.90
2022-09-12T03:18:27.023Z,6.20
2022-09-12T03:19:27.007Z,6.20
2022-09-12T03:20:26.989Z,5.30
2022-09-12T03:21:26.987Z,6.60
2022-09-12T03:22:26.970Z,6.30
2022-09-12T03:23:26.953Z,5.70
2022-09-12T03:24:26.958Z,6.60
2022-09-12T03:25:26.931Z,6.40
2022-09-12T03:26:26.946Z,5.90
2022-09-12T03:27:26.916Z,6.70
2022-09-12T03:28:26.898Z,7.20
2022-09-12T03:29:26.889Z,6.60
2022-09-12T03:30:26.927Z,6.60
2022-09-12T03:31:26.882Z,6.30
2022-09-12T03:32:26.860Z,6.60
2022-09-12T03:33:26.848Z,7.00
2022-09-12T03:34:26.848Z,6.50
2022-09-12T03:35:26.821Z,7.40
2022-09-12T03:36:26.828Z,7.10
2022-09-12T03:37:26.801Z,6.60
2022-09-12T03:38:26.788Z,7.20
2022-09-12T03:39:26.770Z,6.80
2022-09-12T03:40:26.771Z,8.40
2022-09-12T03:41:26.749Z,7.60
2022-09-12T03:42:26.758Z,6.50
2022-09-12T03:43:26.731Z,6.80
2022-09-12T03:44:26.723Z,7.40
2022-09-12T03:45:26.757Z,6.60
2022-09-12T03:46:26.698Z,7.10
2022-09-12T03:47:26.691Z,6.90
2022-09-12T03:48:26.691Z,7.30
2022-09-12T03:49:26.663Z,6.70
2022-09-12T03:50:26.656Z,7.60
2022-09-12T03:51:26.641Z,7.50
2022-09-12T03:52:26.631Z,7.20
2022-09-12T03:53:26.644Z,7.30
2022-09-12T03:54:26.601Z,6.80
2022-09-12T03:55:26.602Z,7.80
2022-09-12T03:56:26.580Z,7.10
2022-09-12T03:57:26.582Z,7.30
2022-09-12T03:58:26.572Z,6.60
2022-09-12T03:59:26.554Z,6.80
2022-09-12T04:00:26.537Z,7.70
2022-09-12T04:01:26.564Z,6.30
2022-09-12T04:02:26.639Z,7.10
2022-09-12T04:03:26.513Z,6.80
2022-09-12T04:04:26.492Z,6.90
2022-09-12T04:05:26.482Z,5.90
2022-09-12T04:06:26.472Z,7.10
2022-09-12T04:07:26.464Z,7.00
2022-09-12T04:08:26.463Z,6.50
2022-09-12T04:09:26.438Z,6.60
2022-09-12T04:10:26.422Z,7.70
2022-09-12T04:11:26.413Z,6.40
2022-09-12T04:12:26.393Z,6.40
2022-09-12T04:13:26.384Z,6.40
2022-09-12T04:14:26.401Z,6.10
2022-09-12T04:15:26.372Z,6.70
2022-09-12T04:16:26.392Z,7.30
2022-09-12T04:17:26.353Z,5.80
2022-09-12T04:18:26.327Z,6.90
2022-09-12T04:19:26.314Z,6.70
2022-09-12T04:20:26.317Z,6.60
2022-09-12T04:21:26.295Z,8.00
2022-09-12T04:22:26.285Z,8.30
2022-09-12T04:23:26.290Z,6.70
2022-09-12T04:24:26.260Z,7.50
2022-09-12T04:25:26.268Z,7.60
2022-09-12T04:26:26.241Z,8.30
2022-09-12T04:27:26.233Z,8.70
2022-09-12T04:28:26.225Z,7.40
2022-09-12T04:29:26.226Z,8.50
2022-09-12T04:30:26.277Z,8.10
2022-09-12T04:31:26.187Z,7.90
2022-09-12T04:32:26.175Z,7.90
2022-09-12T04:33:26.168Z,8.60
2022-09-12T04:34:26.149Z,8.80
2022-09-12T04:35:26.137Z,8.10
2022-09-12T04:36:26.137Z,9.40
2022-09-12T04:37:26.118Z,9.50
2022-09-12T04:38:26.102Z,9.10
2022-09-12T04:39:26.101Z,9.20
2022-09-12T04:40:26.076Z,8.40
2022-09-12T04:41:26.095Z,9.00
2022-09-12T04:42:26.055Z,9.50
2022-09-12T04:43:26.050Z,9.10
2022-09-12T04:44:26.038Z,10.10
2022-09-12T04:45:26.028Z,8.80
2022-09-12T04:46:26.026Z,8.70
2022-09-12T04:47:26.009Z,8.20
2022-09-12T04:48:26.014Z,9.80
2022-09-12T04:49:25.978Z,8.40
2022-09-12T04:50:25.966Z,8.20
2022-09-12T04:51:25.967Z,8.00
2022-09-12T04:52:25.969Z,8.50
2022-09-12T04:53:25.936Z,9.20
2022-09-12T04:54:25.916Z,8.80
2022-09-12T04:55:25.908Z,8.90
2022-09-12T04:56:25.886Z,8.40
2022-09-12T04:57:25.906Z,9.20
2022-09-12T04:58:25.880Z,8.50
2022-09-12T04:59:25.870Z,8.80
2022-09-12T05:00:25.857Z,8.90
2022-09-12T05:01:25.914Z,8.80
2022-09-12T05:02:25.883Z,9.00
2022-09-12T05:03:25.820Z,8.70
2022-09-12T05:04:25.818Z,9.40
2022-09-12T05:05:25.801Z,9.50
2022-09-12T05:06:25.788Z,8.20
2022-09-12T05:07:25.769Z,8.90
2022-09-12T05:08:25.769Z,8.90
2022-09-12T05:09:25.753Z,8.00
2022-09-12T05:10:25.741Z,10.40
2022-09-12T05:11:36.817Z,9.00
2022-09-12T05:12:26.721Z,9.80
2022-09-12T05:13:25.741Z,9.20
2022-09-12T05:14:25.692Z,9.30
2022-09-12T05:15:25.692Z,8.70
2022-09-12T05:16:25.735Z,9.10
2022-09-12T05:17:25.659Z,10.20
2022-09-12T05:18:25.654Z,9.30
2022-09-12T05:19:25.655Z,10.00
2022-09-12T05:20:25.631Z,9.80
2022-09-12T05:21:25.612Z,10.10
2022-09-12T05:22:25.605Z,9.70
2022-09-12T05:23:25.591Z,11.00
2022-09-12T05:24:25.587Z,9.70
2022-09-12T05:25:25.571Z,10.70
2022-09-12T05:26:25.560Z,10.00
2022-09-12T05:27:25.542Z,10.30
2022-09-12T05:28:25.532Z,9.60
2022-09-12T05:29:25.529Z,11.70
2022-09-12T05:30:25.552Z,9.80
2022-09-12T05:31:25.501Z,10.10
2022-09-12T05:32:25.484Z,9.40
2022-09-12T05:33:25.480Z,9.50
2022-09-12T05:34:25.473Z,10.80
2022-09-12T05:35:25.455Z,10.40
2022-09-12T05:36:25.463Z,11.00
2022-09-12T05:37:25.426Z,9.90
2022-09-12T05:38:25.426Z,11.10
2022-09-12T05:39:25.423Z,10.70
2022-09-12T05:40:25.408Z,9.70
2022-09-12T05:41:25.421Z,9.50
2022-09-12T05:42:25.374Z,9.70
2022-09-12T05:43:25.372Z,9.60
2022-09-12T05:44:25.344Z,9.50
2022-09-12T05:45:25.348Z,9.60
2022-09-12T05:46:25.345Z,10.00
2022-09-12T05:47:25.322Z,9.10
2022-09-12T05:48:25.319Z,9.70
2022-09-12T05:49:25.315Z,10.10
2022-09-12T05:50:25.283Z,9.70
2022-09-12T05:51:25.289Z,9.60
2022-09-12T05:52:25.276Z,10.40
2022-09-12T05:53:25.255Z,11.90
2022-09-12T05:54:28.337Z,10.20
2022-09-12T05:55:26.227Z,11.30
2022-09-12T05:56:25.217Z,10.00
2022-09-12T05:57:25.217Z,11.00
2022-09-12T05:58:25.195Z,9.60
2022-09-12T05:59:25.242Z,9.70
2022-09-12T06:00:25.172Z,9.20
2022-09-12T06:01:25.213Z,8.90
2022-09-12T06:02:25.229Z,10.50
2022-09-12T06:03:25.144Z,9.80
2022-09-12T06:04:25.143Z,8.50
2022-09-12T06:05:25.116Z,9.70
2022-09-12T06:06:25.115Z,9.10
2022-09-12T06:07:25.113Z,10.00
2022-09-12T06:08:25.077Z,9.60
2022-09-12T06:09:25.078Z,9.30
2022-09-12T06:10:25.058Z,8.00
2022-09-12T06:11:25.050Z,9.50
2022-09-12T06:12:25.032Z,9.10
2022-09-12T06:13:25.038Z,8.50
2022-09-12T06:14:25.006Z,8.90
2022-09-12T06:15:24.998Z,9.00
2022-09-12T06:16:25.024Z,9.00
2022-09-12T06:17:25.000Z,8.90
2022-09-12T06:18:24.986Z,7.70
2022-09-12T06:19:24.978Z,9.40
2022-09-12T06:20:24.958Z,9.40
2022-09-12T06:21:24.952Z,8.40
2022-09-12T06:22:24.918Z,7.50
2022-09-12T06:23:24.921Z,7.20
2022-09-12T06:24:24.910Z,7.50
2022-09-12T06:25:24.882Z,6.80
2022-09-12T06:26:24.878Z,7.30
2022-09-12T06:27:24.869Z,6.80
2022-09-12T06:28:24.849Z,7.10
2022-09-12T06:29:24.860Z,6.70
2022-09-12T06:30:25.582Z,8.00
2022-09-12T06:31:24.820Z,7.20
2022-09-12T06:32:24.803Z,8.50
2022-09-12T06:33:24.802Z,7.50
2022-09-12T06:34:24.797Z,7.80
2022-09-12T06:35:24.811Z,7.50
2022-09-12T06:36:24.759Z,7.00
2022-09-12T06:37:24.753Z,7.50
2022-09-12T06:38:24.737Z,8.00
2022-09-12T06:39:24.751Z,6.90
2022-09-12T06:40:24.811Z,8.30
2022-09-12T06:41:24.725Z,8.60
2022-09-12T06:42:24.843Z,7.40
2022-09-12T06:43:24.729Z,6.30
2022-09-12T06:44:24.716Z,7.20
2022-09-12T06:45:24.691Z,7.50
2022-09-12T06:46:24.703Z,7.60
2022-09-12T06:47:24.642Z,7.30
2022-09-12T06:48:24.631Z,7.80
2022-09-12T06:49:24.635Z,8.30
2022-09-12T06:50:24.641Z,7.90
2022-09-12T06:51:24.632Z,8.20
2022-09-12T06:52:25.536Z,8.70
2022-09-12T06:53:24.595Z,7.40
2022-09-12T06:54:24.581Z,7.40
2022-09-12T06:55:27.649Z,8.20
2022-09-12T06:56:24.541Z,8.00
2022-09-12T06:57:24.544Z,9.10
2022-09-12T06:58:24.514Z,8.30
2022-09-12T06:59:24.502Z,7.40
2022-09-12T07:00:24.555Z,7.70
2022-09-12T07:01:24.632Z,6.70
2022-09-12T07:02:24.500Z,7.60
2022-09-12T07:03:24.504Z,8.00
2022-09-12T07:04:24.440Z,6.80
2022-09-12T07:05:24.453Z,7.90
2022-09-12T07:06:24.465Z,7.80
2022-09-12T07:07:24.454Z,6.70
2022-09-12T07:08:24.429Z,7.80
2022-09-12T07:09:24.410Z,7.80
2022-09-12T07:10:24.396Z,6.60
2022-09-12T07:11:24.445Z,7.10
2022-09-12T07:12:24.351Z,6.60
2022-09-12T07:13:24.386Z,6.80
2022-09-12T07:14:24.315Z,6.70
2022-09-12T07:15:24.313Z,7.60
2022-09-12T07:16:24.383Z,7.30
2022-09-12T07:17:24.297Z,8.30
2022-09-12T07:18:24.286Z,7.80
2022-09-12T07:19:24.267Z,8.00
2022-09-12T07:20:24.258Z,8.10
2022-09-12T07:21:24.246Z,7.30
2022-09-12T07:22:24.256Z,8.30
2022-09-12T07:23:24.226Z,7.80
2022-09-12T07:24:24.204Z,9.20
2022-09-12T07:25:24.199Z,9.00
2022-09-12T07:26:24.187Z,7.20
2022-09-12T07:27:24.196Z,7.70
2022-09-12T07:28:24.167Z,6.40
2022-09-12T07:29:39.548Z,6.40
2022-09-12T07:30:25.138Z,7.50
2022-09-12T07:31:24.138Z,7.10
2022-09-12T07:32:24.130Z,8.50
2022-09-12T07:33:24.132Z,7.90
2022-09-12T07:34:24.099Z,7.50
2022-09-12T07:35:24.094Z,6.70
2022-09-12T07:36:24.078Z,6.30
2022-09-12T07:37:24.079Z,6.70
2022-09-12T07:38:24.061Z,6.90
2022-09-12T07:39:24.047Z,6.70
2022-09-12T07:40:24.027Z,7.40
2022-09-12T07:41:24.023Z,7.30
2022-09-12T07:42:24.015Z,6.60
2022-09-12T07:43:24.001Z,7.40
2022-09-12T07:44:24.001Z,6.50
2022-09-12T07:45:23.975Z,6.60
2022-09-12T07:46:23.961Z,6.40
2022-09-12T07:47:23.953Z,6.20
2022-09-12T07:48:23.936Z,7.00
2022-09-12T07:49:23.942Z,6.80
2022-09-12T07:50:23.920Z,6.50
2022-09-12T07:51:23.914Z,9.00
2022-09-12T07:52:23.898Z,7.30
2022-09-12T07:53:23.882Z,7.60
2022-09-12T07:54:23.906Z,7.50
2022-09-12T07:55:23.868Z,7.40
2022-09-12T07:56:28.802Z,6.50
2022-09-12T07:57:24.833Z,8.40
2022-09-12T07:58:23.825Z,7.40
2022-09-12T07:59:48.500Z,7.50
2022-09-12T08:00:24.803Z,7.30
2022-09-12T08:01:23.869Z,7.20
2022-09-12T08:02:23.830Z,7.20
2022-09-12T08:03:23.767Z,6.50
2022-09-12T08:04:23.771Z,6.40
2022-09-12T08:05:23.759Z,6.60
2022-09-12T08:06:23.750Z,7.20
2022-09-12T08:07:23.732Z,7.30
2022-09-12T08:08:23.711Z,6.60
2022-09-12T08:09:23.705Z,7.30
2022-09-12T08:10:23.711Z,6.00
2022-09-12T08:11:23.679Z,7.50
2022-09-12T08:12:23.672Z,7.40
2022-09-12T08:13:23.656Z,6.60
2022-09-12T08:14:23.657Z,8.00
2022-09-12T08:15:23.654Z,7.60
2022-09-12T08:16:23.628Z,7.10
2022-09-12T08:17:23.608Z,7.20
2022-09-12T08:18:23.604Z,7.30
2022-09-12T08:19:23.593Z,5.80
2022-09-12T08:20:28.169Z,6.50
2022-09-12T08:21:23.567Z,7.60
2022-09-12T08:22:23.548Z,6.90
2022-09-12T08:23:23.554Z,7.60
2022-09-12T08:24:23.600Z,7.80
2022-09-12T08:25:23.536Z,6.70
2022-09-12T08:26:23.525Z,7.20
2022-09-12T08:27:23.498Z,6.90
2022-09-12T08:28:23.506Z,6.60
2022-09-12T08:29:23.481Z,6.50
2022-09-12T08:30:23.479Z,7.60
2022-09-12T08:31:23.450Z,6.80
2022-09-12T08:32:23.439Z,7.40
2022-09-12T08:33:23.435Z,6.60
2022-09-12T08:34:23.449Z,6.70
2022-09-12T08:35:23.410Z,6.50
2022-09-12T08:36:23.463Z,5.80
2022-09-12T08:37:23.387Z,7.50
2022-09-12T08:38:23.370Z,6.90
2022-09-12T08:39:23.373Z,6.10
2022-09-12T08:40:23.350Z,6.40
2022-09-12T08:41:23.359Z,6.70
2022-09-12T08:42:23.330Z,6.40
2022-09-12T08:43:23.312Z,6.10
2022-09-12T08:44:23.311Z,6.90
2022-09-12T08:45:23.297Z,6.70
2022-09-12T08:46:23.327Z,7.80
2022-09-12T08:47:23.287Z,7.00
2022-09-12T08:48:23.266Z,7.20
2022-09-12T08:49:23.257Z,7.30
2022-09-12T08:50:23.244Z,7.10
2022-09-12T08:51:23.220Z,6.40
2022-09-12T08:52:23.223Z,6.70
2022-09-12T08:53:23.213Z,6.50
2022-09-12T08:54:23.185Z,6.50
2022-09-12T08:55:23.175Z,5.80
2022-09-12T08:56:23.166Z,5.60
2022-09-12T08:57:23.152Z,5.80
2022-09-12T08:58:23.177Z,6.60
2022-09-12T08:59:23.174Z,6.70
2022-09-12T09:00:23.202Z,6.50
2022-09-12T09:01:23.276Z,5.50
2022-09-12T09:02:23.164Z,7.60
2022-09-12T09:03:23.086Z,6.30
2022-09-12T09:04:25.753Z,6.40
2022-09-12T09:05:24.105Z,7.10
2022-09-12T09:06:23.069Z,5.50
2022-09-12T09:07:23.068Z,5.70
2022-09-12T09:08:23.069Z,6.20
2022-09-12T09:09:23.064Z,6.60
2022-09-12T09:10:23.055Z,6.30
2022-09-12T09:11:23.023Z,6.90
2022-09-12T09:12:23.003Z,5.60
2022-09-12T09:13:22.999Z,6.00
2022-09-12T09:14:23.014Z,6.40
2022-09-12T09:15:23.055Z,6.80
2022-09-12T09:16:22.966Z,6.00
2022-09-12T09:17:22.958Z,6.60
2022-09-12T09:18:22.944Z,8.20
2022-09-12T09:19:22.941Z,5.90
2022-09-12T09:20:22.931Z,5.60
2022-09-12T09:21:22.881Z,4.80
2022-09-12T09:22:22.906Z,5.50
2022-09-12T09:23:22.901Z,6.30
2022-09-12T09:24:22.869Z,6.50
2022-09-12T09:25:23.221Z,5.90
2022-09-12T09:26:22.845Z,6.60
2022-09-12T09:27:40.063Z,6.80
2022-09-12T09:28:23.824Z,5.80
2022-09-12T09:29:22.821Z,5.90
2022-09-12T09:30:22.835Z,6.20
2022-09-12T09:31:22.877Z,5.60
2022-09-12T09:32:22.807Z,5.70
2022-09-12T09:33:22.750Z,5.30
2022-09-12T09:34:22.767Z,5.90
2022-09-12T09:35:22.750Z,6.00
2022-09-12T09:36:22.804Z,5.20
2022-09-12T09:37:22.746Z,5.80
2022-09-12T09:38:22.713Z,5.60
2022-09-12T09:39:22.676Z,6.50
2022-09-12T09:40:22.717Z,6.90
2022-09-12T09:41:22.663Z,6.70
2022-09-12T09:42:22.639Z,7.90
2022-09-12T09:43:22.626Z,7.00
2022-09-12T09:44:22.616Z,5.70
2022-09-12T09:45:22.604Z,5.10
2022-09-12T09:46:22.651Z,6.50
2022-09-12T09:47:22.574Z,6.00
2022-09-12T09:48:22.576Z,5.70
2022-09-12T09:49:22.561Z,5.40
2022-09-12T09:50:22.556Z,5.50
2022-09-12T09:51:22.571Z,5.20
2022-09-12T09:52:22.527Z,4.70
2022-09-12T09:53:22.520Z,6.60
2022-09-12T09:54:22.498Z,4.80
2022-09-12T09:55:22.490Z,5.00
2022-09-12T09:56:23.359Z,5.30
2022-09-12T09:57:22.518Z,5.00
2022-09-12T09:58:22.483Z,5.10
2022-09-12T09:59:22.474Z,4.80
2022-09-12T10:00:22.452Z,5.20
2022-09-12T10:01:22.516Z,5.20
2022-09-12T10:02:24.317Z,5.40
2022-09-12T10:03:22.398Z,5.30
2022-09-12T10:04:22.434Z,5.10
2022-09-12T10:05:22.382Z,5.20
2022-09-12T10:06:22.385Z,5.40
2022-09-12T10:07:22.367Z,5.10
2022-09-12T10:08:22.357Z,4.50
2022-09-12T10:09:22.337Z,5.30
2022-09-12T10:10:22.333Z,5.70
2022-09-12T10:11:22.341Z,5.20
2022-09-12T10:12:22.303Z,4.80
2022-09-12T10:13:22.301Z,4.70
2022-09-12T10:14:22.286Z,3.90
2022-09-12T10:15:22.270Z,5.00
2022-09-12T10:16:22.321Z,4.40
2022-09-12T10:17:22.243Z,4.40
2022-09-12T10:18:22.243Z,4.60
2022-09-12T10:19:22.223Z,4.30
2022-09-12T10:20:22.372Z,4.20
2022-09-12T10:21:22.223Z,4.20
2022-09-12T10:22:22.193Z,5.00
2022-09-12T10:23:22.182Z,4.10
2022-09-12T10:24:22.181Z,4.10
2022-09-12T10:25:22.162Z,4.50
2022-09-12T10:26:22.164Z,4.70
2022-09-12T10:27:22.134Z,3.50
2022-09-12T10:28:22.138Z,3.90
2022-09-12T10:29:22.118Z,3.40
2022-09-12T10:30:22.106Z,3.20
2022-09-12T10:31:22.105Z,3.70
2022-09-12T10:32:22.084Z,3.90
2022-09-12T10:33:22.060Z,3.50
2022-09-12T10:34:22.102Z,4.30
2022-09-12T10:35:22.081Z,3.50
2022-09-12T10:36:22.054Z,3.70
2022-09-12T10:37:22.073Z,3.50
2022-09-12T10:38:22.031Z,3.90
2022-09-12T10:39:22.020Z,4.10
2022-09-12T10:40:22.024Z,3.90
2022-09-12T10:41:21.998Z,4.30
2022-09-12T10:42:23.453Z,4.10
2022-09-12T10:43:21.987Z,3.90
2022-09-12T10:44:21.948Z,4.30
2022-09-12T10:45:21.938Z,4.00
2022-09-12T10:46:21.964Z,3.90
2022-09-12T10:47:21.930Z,3.40
2022-09-12T10:48:21.908Z,3.70
2022-09-12T10:49:21.885Z,4.20
2022-09-12T10:50:23.082Z,4.00
2022-09-12T10:51:21.871Z,4.00
2022-09-12T10:52:21.884Z,3.90
2022-09-12T10:53:21.841Z,4.10
2022-09-12T10:54:21.918Z,4.10
2022-09-12T10:55:21.819Z,3.90
2022-09-12T10:56:21.819Z,3.30
2022-09-12T10:57:21.800Z,3.60
2022-09-12T10:58:21.803Z,4.30
2022-09-12T10:59:21.801Z,3.80
2022-09-12T11:00:21.770Z,3.60
2022-09-12T11:01:21.798Z,3.90
2022-09-12T11:02:21.810Z,3.20
2022-09-12T11:03:21.751Z,3.30
2022-09-12T11:04:21.721Z,3.60
2022-09-12T11:05:22.872Z,3.90
2022-09-12T11:06:21.707Z,3.20
2022-09-12T11:07:21.691Z,3.50
2022-09-12T11:08:21.684Z,3.40
2022-09-12T11:09:21.682Z,3.40
2022-09-12T11:10:21.663Z,3.00
2022-09-12T11:11:21.641Z,3.10
2022-09-12T11:12:21.642Z,3.10
2022-09-12T11:13:21.626Z,2.80
2022-09-12T11:14:21.626Z,3.50
2022-09-12T11:15:21.592Z,3.40
2022-09-12T11:16:21.628Z,3.40
2022-09-12T11:17:21.574Z,3.60
2022-09-12T11:18:21.568Z,3.20
2022-09-12T11:19:21.552Z,3.50
2022-09-12T11:20:21.570Z,3.40
2022-09-12T11:21:21.537Z,3.60
2022-09-12T11:22:21.533Z,3.30
2022-09-12T11:23:21.526Z,3.30
2022-09-12T11:24:21.520Z,3.70
2022-09-12T11:25:21.508Z,3.00
2022-09-12T11:26:21.487Z,3.10
2022-09-12T11:27:21.475Z,3.10
2022-09-12T11:28:21.454Z,3.30
2022-09-12T11:29:21.468Z,3.40
2022-09-12T11:30:21.436Z,3.90
2022-09-12T11:31:21.436Z,3.10
2022-09-12T11:32:21.408Z,3.20
2022-09-12T11:33:21.399Z,3.20
2022-09-12T11:34:21.391Z,3.10
2022-09-12T11:35:21.377Z,3.00
2022-09-12T11:36:21.379Z,3.00
2022-09-12T11:37:21.355Z,3.40
2022-09-12T11:38:21.341Z,2.60
2022-09-12T11:39:21.329Z,2.60
2022-09-12T11:40:21.346Z,2.70
2022-09-12T11:41:21.330Z,3.00
2022-09-12T11:42:21.290Z,3.00
2022-09-12T11:43:21.294Z,3.10
2022-09-12T11:44:21.280Z,3.00
2022-09-12T11:45:21.262Z,3.10
2022-09-12T11:46:21.293Z,3.20
2022-09-12T11:47:21.251Z,3.00
2022-09-12T11:48:21.232Z,3.10
2022-09-12T11:49:21.221Z,3.00
2022-09-12T11:50:21.211Z,3.10
2022-09-12T11:51:21.197Z,2.70
2022-09-12T11:52:21.202Z,2.80
2022-09-12T11:53:21.174Z,3.30
2022-09-12T11:54:21.165Z,3.10
2022-09-12T11:55:21.151Z,2.80
2022-09-12T11:56:21.152Z,2.70
2022-09-12T11:57:21.144Z,3.20
2022-09-12T11:58:21.121Z,3.20
2022-09-12T11:59:21.111Z,3.80
2022-09-12T12:00:21.100Z,3.60
2022-09-12T12:01:21.073Z,3.90
2022-09-12T12:02:21.151Z,3.90
2022-09-12T12:03:21.085Z,3.20
2022-09-12T12:04:21.050Z,3.20
2022-09-12T12:05:21.038Z,3.20
2022-09-12T12:06:21.026Z,3.10
2022-09-12T12:07:21.017Z,2.90
2022-09-12T12:08:21.018Z,3.00
2022-09-12T12:09:20.989Z,3.10
2022-09-12T12:10:20.979Z,3.40
2022-09-12T12:11:20.968Z,3.00
2022-09-12T12:12:20.951Z,2.70
2022-09-12T12:13:20.970Z,2.80
2022-09-12T12:14:20.937Z,3.00
2022-09-12T12:15:20.930Z,3.30
2022-09-12T12:16:20.957Z,3.60
2022-09-12T12:17:20.891Z,3.10
2022-09-12T12:18:20.888Z,3.10
2022-09-12T12:19:20.893Z,3.00
2022-09-12T12:20:20.859Z,2.90
2022-09-12T12:21:20.850Z,3.10
2022-09-12T12:22:20.836Z,3.40
2022-09-12T12:23:20.829Z,2.90
2022-09-12T12:24:20.833Z,2.80
2022-09-12T12:25:21.975Z,2.50
2022-09-12T12:26:20.798Z,2.90
2022-09-12T12:27:20.778Z,2.60
2022-09-12T12:28:20.763Z,2.80
2022-09-12T12:29:20.772Z,2.50
2022-09-12T12:30:20.747Z,2.60
2022-09-12T12:31:20.764Z,2.70
2022-09-12T12:32:20.730Z,2.80
2022-09-12T12:33:20.711Z,2.50
2022-09-12T12:34:20.721Z,3.00
2022-09-12T12:35:20.692Z,2.40
2022-09-12T12:36:20.677Z,3.00
2022-09-12T12:37:20.671Z,2.70
2022-09-12T12:38:20.659Z,2.60
2022-09-12T12:39:20.652Z,2.80
2022-09-12T12:40:20.728Z,2.40
2022-09-12T12:41:20.624Z,2.60
2022-09-12T12:42:22.439Z,2.40
2022-09-12T12:43:20.607Z,2.50
2022-09-12T12:44:20.587Z,2.50
2022-09-12T12:45:20.611Z,2.40
2022-09-12T12:46:20.655Z,2.90
2022-09-12T12:47:20.569Z,3.10
2022-09-12T12:48:20.535Z,2.30
2022-09-12T12:49:20.526Z,2.40
2022-09-12T12:50:20.538Z,2.50
2022-09-12T12:51:20.509Z,2.40
2022-09-12T12:52:20.497Z,2.60
2022-09-12T12:53:20.485Z,2.30
2022-09-12T12:54:20.474Z,2.20
2022-09-12T12:55:20.461Z,2.80
2022-09-12T12:56:20.464Z,2.30
2022-09-12T12:57:20.437Z,2.40
2022-09-12T12:58:20.430Z,2.40
2022-09-12T12:59:20.415Z,2.40
2022-09-12T13:00:20.410Z,2.60
2022-09-12T13:01:20.454Z,3.20
2022-09-12T13:02:20.392Z,2.60
2022-09-12T13:03:20.368Z,2.60
2022-09-12T13:04:20.358Z,2.40
2022-09-12T13:05:20.356Z,2.40
2022-09-12T13:06:20.348Z,2.50
2022-09-12T13:07:20.331Z,2.30
2022-09-12T13:08:20.315Z,2.20
2022-09-12T13:09:20.303Z,2.30
2022-09-12T13:10:20.284Z,2.20
2022-09-12T13:11:20.302Z,2.40
2022-09-12T13:12:20.259Z,2.50
2022-09-12T13:13:20.260Z,2.20
2022-09-12T13:14:20.248Z,2.20
2022-09-12T13:15:20.238Z,2.10
2022-09-12T13:16:20.241Z,2.10
2022-09-12T13:17:20.215Z,2.10